Time;durP1;ratioP1;P1;durP2;ratioP2;P2;SDS_P1;SDS_P2;PMS_P1;PMS_P2;Temp;Humidity;BMP_temperature;BMP_pressure;BME280_temperature;BME280_humidity;BME280_pressure;Samples;Min_cycle;Max_cycle;Signal;HPM_P1;HPM_P2
2022/07/26 00:02:10;;;;;;;12.60;3.15;;;19.00;99.90;;;;;;5030982;28;20056;-49
2022/07/26 00:04:36;;;;;;;13.55;3.28;;;19.00;99.90;;;;;;5031293;28;20092;-48
2022/07/26 00:07:02;;;;;;;10.88;3.08;;;19.00;99.90;;;;;;5030969;28;20129;-47
2022/07/26 00:09:27;;;;;;;14.70;3.20;;;18.90;99.90;;;;;;5013094;28;20691;-50
2022/07/26 00:11:53;;;;;;;13.43;3.15;;;18.80;99.90;;;;;;5031225;28;20144;-48
2022/07/26 00:14:19;;;;;;;11.82;3.22;;;18.90;99.90;;;;;;5030877;28;20041;-49
2022/07/26 00:16:44;;;;;;;13.68;3.08;;;18.80;99.90;;;;;;5031292;28;20465;-49
2022/07/26 00:19:10;;;;;;;13.18;2.92;;;18.70;99.90;;;;;;5030794;28;20044;-47
2022/07/26 00:21:36;;;;;;;11.82;2.88;;;18.70;99.90;;;;;;5030610;28;20104;-47
2022/07/26 00:24:03;;;;;;;12.13;3.10;;;18.60;99.90;;;;;;5030862;28;20452;-47
2022/07/26 00:26:29;;;;;;;16.23;3.53;;;18.60;99.90;;;;;;5030530;28;20085;-47
2022/07/26 00:28:54;;;;;;;11.15;3.17;;;18.50;99.90;;;;;;5012795;28;20072;-47
2022/07/26 00:31:20;;;;;;;12.93;3.40;;;18.40;99.90;;;;;;5029990;28;20492;-50
2022/07/26 00:33:46;;;;;;;14.00;3.10;;;18.40;99.90;;;;;;5012862;28;20044;-48
2022/07/26 00:36:12;;;;;;;13.57;3.50;;;18.50;99.90;;;;;;5030515;28;20052;-50
2022/07/26 00:38:37;;;;;;;14.20;3.30;;;18.40;99.90;;;;;;5030231;28;20041;-46
2022/07/26 00:41:04;;;;;;;14.63;3.42;;;18.40;99.90;;;;;;5030616;28;20029;-45
2022/07/26 00:43:30;;;;;;;12.80;3.22;;;18.40;99.90;;;;;;5030543;28;20041;-45
2022/07/26 00:45:56;;;;;;;15.35;3.58;;;18.30;99.90;;;;;;5030078;28;20095;-49
2022/07/26 00:48:22;;;;;;;11.07;3.08;;;18.20;99.90;;;;;;5030453;28;20108;-48
2022/07/26 00:50:48;;;;;;;13.10;3.38;;;18.20;99.90;;;;;;5030531;28;20108;-50
2022/07/26 00:53:14;;;;;;;14.93;3.40;;;18.10;99.90;;;;;;5030249;28;20045;-47
2022/07/26 00:55:39;;;;;;;13.00;3.55;;;18.20;99.90;;;;;;5030342;28;20449;-50
2022/07/26 00:58:05;;;;;;;17.23;3.25;;;18.10;99.90;;;;;;5030226;28;20132;-44
2022/07/26 01:00:31;;;;;;;14.30;3.33;;;18.20;99.90;;;;;;5028199;28;20055;-48
2022/07/26 01:02:59;;;;;;;13.70;3.78;;;18.10;99.90;;;;;;5030196;28;20042;-49
2022/07/26 01:05:25;;;;;;;16.27;3.50;;;18.10;99.90;;;;;;5029760;28;20038;-49
2022/07/26 01:07:52;;;;;;;14.98;3.50;;;18.10;99.90;;;;;;5029923;28;20474;-48
2022/07/26 01:10:18;;;;;;;13.85;3.25;;;18.00;99.90;;;;;;5030110;28;20045;-50
2022/07/26 01:12:45;;;;;;;8.82;3.08;;;18.00;99.90;;;;;;5030008;28;20029;-47
2022/07/26 01:15:12;;;;;;;13.35;3.70;;;17.90;99.90;;;;;;5030085;28;20400;-46
2022/07/26 01:17:38;;;;;;;17.80;3.90;;;18.00;99.90;;;;;;5030050;28;20053;-47
2022/07/26 01:20:07;;;;;;;11.95;3.38;;;17.90;99.90;;;;;;5029873;28;20037;-48
2022/07/26 01:22:33;;;;;;;15.65;3.28;;;17.80;99.90;;;;;;5030130;28;20102;-53
2022/07/26 01:24:58;;;;;;;14.13;3.40;;;17.70;99.90;;;;;;5029801;28;20030;-49
2022/07/26 01:27:24;;;;;;;12.48;3.20;;;17.80;99.90;;;;;;5029786;28;20044;-46
2022/07/26 01:29:50;;;;;;;15.15;3.85;;;17.70;99.90;;;;;;5012008;28;20123;-48
2022/07/26 01:32:17;;;;;;;13.88;3.47;;;17.70;99.90;;;;;;5029381;28;20048;-48
2022/07/26 01:34:43;;;;;;;12.70;3.47;;;17.80;99.90;;;;;;5029491;28;20492;-45
2022/07/26 01:37:09;;;;;;;15.60;3.97;;;17.70;99.90;;;;;;5029943;28;20073;-48
2022/07/26 01:39:35;;;;;;;15.80;3.20;;;17.70;99.90;;;;;;5029492;28;20043;-45
2022/07/26 01:42:01;;;;;;;14.30;3.92;;;17.60;99.90;;;;;;5012001;28;20037;-46
2022/07/26 01:44:26;;;;;;;11.13;3.38;;;17.60;99.90;;;;;;5011612;28;20076;-49
2022/07/26 01:46:52;;;;;;;14.02;3.45;;;17.50;99.90;;;;;;5029477;28;20049;-45
2022/07/26 01:49:18;;;;;;;12.95;3.90;;;17.60;99.90;;;;;;5029347;28;20116;-48
2022/07/26 01:51:44;;;;;;;14.77;4.25;;;17.50;99.90;;;;;;5029818;28;20064;-47
2022/07/26 01:54:10;;;;;;;16.73;3.40;;;17.60;99.90;;;;;;5029711;28;20053;-49
2022/07/26 01:56:36;;;;;;;17.48;4.00;;;17.60;99.90;;;;;;5012665;28;20037;-50
2022/07/26 01:59:02;;;;;;;12.60;3.40;;;17.60;99.90;;;;;;5033141;28;20060;-51
2022/07/26 02:01:28;;;;;;;15.13;3.42;;;17.60;99.90;;;;;;5033178;28;20045;-46
2022/07/26 02:03:53;;;;;;;13.32;3.67;;;17.60;99.90;;;;;;5031900;28;20041;-48
2022/07/26 02:06:19;;;;;;;15.15;3.45;;;17.70;99.90;;;;;;5033467;28;20037;-45
2022/07/26 02:08:45;;;;;;;11.57;3.58;;;17.70;99.90;;;;;;5033411;28;20489;-50
2022/07/26 02:11:10;;;;;;;9.85;3.13;;;17.70;99.90;;;;;;5033380;28;20038;-47
2022/07/26 02:13:38;;;;;;;11.93;3.40;;;17.80;99.90;;;;;;5033254;28;20067;-47
2022/07/26 02:16:09;;;;;;;11.65;3.28;;;17.70;99.90;;;;;;5033173;28;20037;-49
2022/07/26 02:18:36;;;;;;;16.25;3.72;;;17.70;99.90;;;;;;5032920;28;20094;-46
2022/07/26 02:21:03;;;;;;;10.07;2.72;;;17.80;99.90;;;;;;5033360;28;20150;-50
2022/07/26 02:23:29;;;;;;;7.53;2.72;;;17.80;99.90;;;;;;5033204;28;20583;-47
2022/07/26 02:25:55;;;;;;;8.13;2.85;;;17.70;99.90;;;;;;5032994;28;20037;-44
2022/07/26 02:28:22;;;;;;;11.02;3.05;;;17.70;99.90;;;;;;5033361;28;20354;-46
2022/07/26 02:30:49;;;;;;;12.30;2.80;;;17.70;99.90;;;;;;5032437;28;20033;-49
2022/07/26 02:33:15;;;;;;;9.73;3.10;;;17.60;99.90;;;;;;5032643;28;20481;-46
2022/07/26 02:35:40;;;;;;;12.10;3.08;;;17.60;99.90;;;;;;5032902;28;20065;-47
2022/07/26 02:38:09;;;;;;;9.85;3.22;;;17.60;99.90;;;;;;5032777;28;20477;-46
2022/07/26 02:40:36;;;;;;;8.48;3.30;;;17.50;99.90;;;;;;5032616;28;20091;-48
2022/07/26 02:43:03;;;;;;;7.50;2.80;;;17.50;99.90;;;;;;5032846;28;20048;-51
2022/07/26 02:45:29;;;;;;;8.05;2.47;;;17.50;99.90;;;;;;5032552;28;20037;-47
2022/07/26 02:47:55;;;;;;;7.47;2.33;;;17.50;99.90;;;;;;5032123;28;20516;-46
2022/07/26 02:50:23;;;;;;;5.70;2.28;;;17.60;99.90;;;;;;5032606;28;20029;-44
2022/07/26 02:52:50;;;;;;;12.10;3.40;;;17.60;99.90;;;;;;5014718;28;20170;-50
2022/07/26 02:55:19;;;;;;;8.52;2.42;;;17.60;99.90;;;;;;5032516;28;20041;-46
2022/07/26 02:57:45;;;;;;;10.02;2.28;;;17.60;99.90;;;;;;5032108;28;20045;-47
2022/07/26 03:00:12;;;;;;;9.52;2.45;;;17.70;99.90;;;;;;5010999;28;20057;-51
2022/07/26 03:02:39;;;;;;;8.15;2.40;;;17.80;99.90;;;;;;5012223;28;20120;-45
2022/07/26 03:05:05;;;;;;;10.52;2.30;;;17.70;99.90;;;;;;5010150;28;20098;-49
2022/07/26 03:07:32;;;;;;;7.65;2.58;;;17.80;99.90;;;;;;5012296;28;20054;-47
2022/07/26 03:09:58;;;;;;;4.90;2.20;;;17.80;99.90;;;;;;5011785;28;20484;-44
2022/07/26 03:12:24;;;;;;;9.52;2.58;;;17.80;99.90;;;;;;5012586;28;20052;-49
2022/07/26 03:14:50;;;;;;;4.93;2.10;;;17.80;99.90;;;;;;5012207;28;20057;-46
2022/07/26 03:17:16;;;;;;;7.18;3.08;;;17.90;99.90;;;;;;5012163;28;20034;-46
2022/07/26 03:19:42;;;;;;;6.05;2.20;;;17.80;99.90;;;;;;5010825;28;20049;-45
2022/07/26 03:22:08;;;;;;;7.47;2.40;;;17.80;99.90;;;;;;5012301;28;20054;-48
2022/07/26 03:24:34;;;;;;;5.95;2.42;;;17.80;99.90;;;;;;5012092;28;20041;-48
2022/07/26 03:27:00;;;;;;;5.50;2.10;;;17.80;99.90;;;;;;5011952;28;20042;-49
2022/07/26 03:29:25;;;;;;;4.82;1.90;;;17.90;99.90;;;;;;5011795;28;20034;-45
2022/07/26 03:31:51;;;;;;;5.32;2.10;;;17.70;99.90;;;;;;5011545;28;20504;-48
2022/07/26 03:34:17;;;;;;;4.32;1.60;;;17.70;99.90;;;;;;5012058;28;20076;-50
2022/07/26 03:36:43;;;;;;;4.72;1.70;;;17.70;99.90;;;;;;5011935;28;20508;-52
2022/07/26 03:39:09;;;;;;;5.82;1.98;;;17.70;99.90;;;;;;5012079;28;20367;-48
2022/07/26 03:41:34;;;;;;;5.28;2.20;;;17.60;99.90;;;;;;5011945;28;20628;-50
2022/07/26 03:44:00;;;;;;;5.00;2.00;;;17.40;99.90;;;;;;5011725;28;20156;-48
2022/07/26 03:46:26;;;;;;;9.25;2.55;;;17.40;99.90;;;;;;5011637;28;20042;-48
2022/07/26 03:48:51;;;;;;;5.38;1.92;;;17.20;99.90;;;;;;5011867;28;20139;-50
2022/07/26 03:51:17;;;;;;;5.72;2.20;;;17.20;99.90;;;;;;5011850;28;20466;-48
2022/07/26 03:53:43;;;;;;;5.15;2.40;;;17.20;99.90;;;;;;5011611;28;20049;-48
2022/07/26 03:58:53;;;;;;;8.27;1.85;;;17.10;99.90;;;;;;5015536;28;20064;-50
2022/07/26 04:01:18;;;;;;;5.88;2.28;;;17.10;99.90;;;;;;5030727;28;20053;-48
2022/07/26 04:03:44;;;;;;;4.53;2.17;;;17.10;99.90;;;;;;5031376;28;20041;-50
2022/07/26 04:06:10;;;;;;;6.20;2.40;;;17.10;99.90;;;;;;5031345;28;20389;-47
2022/07/26 04:08:35;;;;;;;7.70;2.40;;;17.00;99.90;;;;;;5030934;28;20047;-47
2022/07/26 04:11:01;;;;;;;4.88;2.13;;;17.10;99.90;;;;;;5031110;28;20079;-47
2022/07/26 04:13:27;;;;;;;9.07;2.85;;;17.10;99.90;;;;;;5030792;28;20041;-45
2022/07/26 04:15:52;;;;;;;6.70;2.17;;;17.10;99.90;;;;;;5031072;28;20088;-47
2022/07/26 04:18:19;;;;;;;8.68;2.45;;;17.10;99.90;;;;;;5012804;28;20042;-47
2022/07/26 04:20:45;;;;;;;7.53;2.42;;;17.10;99.90;;;;;;5030547;28;20428;-46
2022/07/26 04:23:11;;;;;;;6.20;2.40;;;17.00;99.90;;;;;;5030732;28;20032;-47
2022/07/26 04:25:36;;;;;;;5.90;2.35;;;17.10;99.90;;;;;;5031239;28;20095;-49
2022/07/26 04:28:02;;;;;;;7.22;2.22;;;17.00;99.90;;;;;;5029073;28;20512;-48
2022/07/26 04:30:28;;;;;;;4.93;2.28;;;17.00;99.90;;;;;;5029119;28;20061;-48
2022/07/26 04:32:54;;;;;;;5.70;1.95;;;17.00;99.90;;;;;;5030290;28;20037;-49
2022/07/26 04:35:20;;;;;;;6.55;2.42;;;17.00;99.90;;;;;;5030581;28;20037;-50
2022/07/26 04:37:46;;;;;;;7.13;2.22;;;17.00;99.90;;;;;;5030503;28;20466;-50
2022/07/26 04:40:19;;;;;;;7.03;2.08;;;17.10;99.90;;;;;;5030387;28;20045;-48
2022/07/26 04:42:45;;;;;;;7.50;2.20;;;17.20;99.90;;;;;;5012806;28;20072;-50
2022/07/26 04:45:12;;;;;;;7.93;2.03;;;17.20;99.90;;;;;;5030280;28;20029;-48
2022/07/26 04:47:48;;;;;;;5.57;2.30;;;17.20;99.90;;;;;;5030351;28;20045;-46
2022/07/26 04:50:14;;;;;;;7.40;2.10;;;17.10;99.90;;;;;;5030156;28;20044;-47
2022/07/26 04:52:40;;;;;;;9.45;2.05;;;17.00;99.90;;;;;;5030466;28;20037;-52
2022/07/26 04:55:07;;;;;;;6.75;1.90;;;17.10;99.90;;;;;;5029941;28;20095;-49
2022/07/26 04:57:33;;;;;;;8.32;2.08;;;17.20;99.90;;;;;;5030363;28;20045;-48
2022/07/26 04:59:59;;;;;;;8.32;2.08;;;17.10;99.90;;;;;;5029903;28;20045;-48
2022/07/26 05:02:26;;;;;;;6.93;1.70;;;17.20;99.90;;;;;;5029997;28;20390;-49
2022/07/26 05:04:51;;;;;;;8.05;2.70;;;17.30;99.90;;;;;;5029999;28;20060;-48
2022/07/26 05:07:18;;;;;;;9.35;2.13;;;17.20;99.90;;;;;;5030123;28;20041;-51
2022/07/26 05:09:44;;;;;;;7.53;1.90;;;17.20;99.90;;;;;;5029728;28;20396;-46
2022/07/26 05:12:10;;;;;;;10.05;1.77;;;17.20;99.90;;;;;;5030227;28;20042;-48
2022/07/26 05:14:38;;;;;;;8.93;1.42;;;17.20;99.90;;;;;;5030187;28;20191;-49
2022/07/26 05:17:05;;;;;;;7.18;1.55;;;17.30;99.90;;;;;;5030173;28;20046;-48
2022/07/26 05:19:30;;;;;;;8.55;1.80;;;17.30;99.90;;;;;;5012222;28;20048;-52
2022/07/26 05:21:56;;;;;;;6.30;2.10;;;17.20;99.90;;;;;;5029577;28;20049;-50
2022/07/26 05:24:22;;;;;;;10.82;2.33;;;17.30;99.90;;;;;;5029766;28;20209;-52
2022/07/26 05:26:48;;;;;;;8.00;1.80;;;17.10;99.90;;;;;;5030062;28;20393;-49
2022/07/26 05:29:13;;;;;;;8.20;1.80;;;17.10;99.90;;;;;;5029620;28;20048;-48
2022/07/26 05:31:39;;;;;;;6.57;2.13;;;17.00;99.90;;;;;;5010798;28;20147;-47
2022/07/26 05:34:05;;;;;;;11.88;2.38;;;17.10;99.90;;;;;;5029946;28;20452;-48
2022/07/26 05:36:30;;;;;;;9.82;2.65;;;17.10;99.90;;;;;;5029441;28;20029;-47
2022/07/26 05:38:56;;;;;;;10.02;2.80;;;17.20;99.90;;;;;;5029627;28;20045;-47
2022/07/26 05:41:22;;;;;;;11.27;2.40;;;17.30;99.90;;;;;;5029492;28;20045;-48
2022/07/26 05:43:47;;;;;;;11.60;2.17;;;17.30;99.90;;;;;;5029842;28;20029;-48
2022/07/26 05:46:14;;;;;;;9.07;1.90;;;17.30;99.90;;;;;;5029589;28;20053;-49
2022/07/26 05:48:41;;;;;;;6.30;1.60;;;17.30;99.90;;;;;;5012374;28;20053;-47
2022/07/26 05:51:08;;;;;;;9.68;1.70;;;17.30;99.90;;;;;;5029581;28;20068;-47
2022/07/26 05:53:34;;;;;;;7.40;1.23;;;17.40;99.90;;;;;;5029297;28;20041;-49
2022/07/26 05:55:59;;;;;;;7.72;1.70;;;17.40;99.90;;;;;;5029887;28;20862;-47
2022/07/26 05:58:25;;;;;;;5.50;1.00;;;17.40;99.90;;;;;;5029303;28;20041;-49
2022/07/26 06:00:51;;;;;;;3.08;0.85;;;17.30;99.90;;;;;;5029298;28;20041;-48
2022/07/26 06:03:22;;;;;;;5.78;1.00;;;17.40;99.90;;;;;;5011666;28;20124;-47
2022/07/26 06:05:53;;;;;;;5.93;1.17;;;17.30;99.90;;;;;;5029431;28;20824;-49
2022/07/26 06:08:19;;;;;;;3.45;0.90;;;17.20;99.90;;;;;;5029622;28;20033;-47
2022/07/26 06:10:46;;;;;;;5.70;1.10;;;17.20;99.90;;;;;;5011595;28;20065;-50
2022/07/26 06:13:12;;;;;;;6.93;1.30;;;17.20;99.90;;;;;;5029717;28;20459;-48
2022/07/26 06:15:38;;;;;;;6.30;1.20;;;17.20;99.90;;;;;;5029414;28;20041;-49
2022/07/26 06:18:05;;;;;;;6.03;1.10;;;17.20;99.90;;;;;;5028287;28;20110;-51
2022/07/26 06:20:31;;;;;;;5.47;1.02;;;17.20;99.90;;;;;;5029146;28;20037;-49
2022/07/26 06:22:57;;;;;;;5.82;1.08;;;17.20;99.90;;;;;;5029030;28;20045;-48
2022/07/26 06:25:26;;;;;;;3.35;0.68;;;17.10;99.90;;;;;;5029355;28;20052;-51
2022/07/26 06:27:52;;;;;;;2.83;0.80;;;17.20;99.90;;;;;;5029230;28;20539;-48
2022/07/26 06:30:18;;;;;;;5.00;0.80;;;17.20;99.90;;;;;;5029268;28;20470;-46
2022/07/26 06:32:44;;;;;;;6.13;0.70;;;17.20;99.90;;;;;;5029196;28;20041;-48
2022/07/26 06:35:14;;;;;;;3.05;0.80;;;17.20;99.90;;;;;;5029108;28;20034;-51
2022/07/26 06:37:41;;;;;;;3.65;0.80;;;17.30;99.90;;;;;;5029606;28;20531;-48
2022/07/26 06:40:09;;;;;;;2.55;0.50;;;17.20;99.90;;;;;;5029186;28;20033;-50
2022/07/26 06:42:35;;;;;;;3.75;0.70;;;17.20;99.90;;;;;;5029959;28;20050;-48
2022/07/26 06:45:01;;;;;;;4.68;1.10;;;17.20;99.90;;;;;;5031463;28;20064;-49
2022/07/26 06:47:27;;;;;;;3.85;0.50;;;17.20;99.90;;;;;;5032596;28;20060;-48
2022/07/26 06:49:52;;;;;;;4.88;0.73;;;17.20;99.90;;;;;;5032394;28;20026;-53
2022/07/26 06:52:19;;;;;;;3.20;0.80;;;17.20;99.90;;;;;;5032781;28;20099;-48
2022/07/26 06:54:45;;;;;;;4.25;0.82;;;17.30;99.90;;;;;;5032625;28;20033;-49
2022/07/26 06:57:10;;;;;;;5.63;1.00;;;17.30;99.90;;;;;;5032476;28;20048;-47
2022/07/26 06:59:36;;;;;;;3.35;0.80;;;17.30;99.90;;;;;;5030906;28;20054;-50
2022/07/26 07:02:03;;;;;;;4.45;0.70;;;17.30;99.90;;;;;;5031955;28;20500;-50
2022/07/26 07:04:30;;;;;;;5.00;0.70;;;17.50;99.90;;;;;;5032011;28;20321;-46
2022/07/26 07:07:01;;;;;;;4.70;0.80;;;17.50;99.90;;;;;;5032408;28;20133;-50
2022/07/26 07:09:27;;;;;;;5.88;1.00;;;17.40;99.90;;;;;;5032175;28;20046;-49
2022/07/26 07:11:53;;;;;;;4.28;0.98;;;17.40;99.90;;;;;;5032360;28;20034;-51
2022/07/26 07:14:18;;;;;;;3.47;0.95;;;17.20;99.90;;;;;;5032088;28;20495;-48
2022/07/26 07:16:44;;;;;;;4.90;0.82;;;16.90;99.90;;;;;;5021766;28;20069;-51
2022/07/26 07:19:10;;;;;;;5.07;0.77;;;16.80;99.90;;;;;;5022766;28;20057;-49
2022/07/26 07:21:35;;;;;;;4.10;0.88;;;16.80;99.90;;;;;;5023209;28;20025;-47
2022/07/26 07:24:01;;;;;;;2.28;0.60;;;16.90;99.90;;;;;;5023765;28;20033;-47
2022/07/26 07:26:27;;;;;;;5.20;0.65;;;16.80;99.90;;;;;;5022367;28;20045;-51
2022/07/26 07:28:52;;;;;;;3.05;0.60;;;17.00;99.90;;;;;;5023637;28;20033;-48
2022/07/26 07:31:18;;;;;;;4.63;0.80;;;17.00;99.90;;;;;;5022679;28;20030;-51
2022/07/26 07:33:43;;;;;;;4.40;0.85;;;17.10;99.90;;;;;;5022244;28;20061;-51
2022/07/26 07:36:09;;;;;;;3.92;0.90;;;17.20;99.90;;;;;;5022321;28;20119;-48
2022/07/26 07:38:35;;;;;;;4.43;0.90;;;17.20;99.90;;;;;;5021432;28;20051;-48
2022/07/26 07:41:00;;;;;;;2.88;0.50;;;17.30;99.90;;;;;;5019358;28;20068;-53
2022/07/26 07:43:26;;;;;;;4.55;0.75;;;17.30;99.90;;;;;;5005479;28;20052;-48
2022/07/26 07:45:52;;;;;;;3.55;0.90;;;17.50;99.90;;;;;;5004718;28;20481;-52
2022/07/26 07:48:17;;;;;;;4.22;0.68;;;17.60;99.90;;;;;;5021093;28;20032;-48
2022/07/26 07:50:43;;;;;;;3.90;0.95;;;17.60;99.90;;;;;;5020919;28;20546;-50
2022/07/26 07:53:09;;;;;;;3.30;0.65;;;17.70;99.90;;;;;;5019306;28;20124;-46
2022/07/26 07:55:35;;;;;;;5.22;0.85;;;17.70;99.90;;;;;;5019412;28;20053;-51
2022/07/26 07:58:00;;;;;;;3.75;0.82;;;17.70;99.90;;;;;;5020863;28;20092;-50
2022/07/26 08:00:26;;;;;;;2.28;0.50;;;17.60;99.90;;;;;;5019942;28;20152;-52
2022/07/26 08:02:52;;;;;;;2.55;0.60;;;17.60;99.90;;;;;;5019773;28;20048;-46
2022/07/26 08:05:18;;;;;;;5.47;0.70;;;17.60;99.90;;;;;;5002702;28;20046;-50
2022/07/26 08:07:43;;;;;;;3.17;0.82;;;17.60;99.90;;;;;;5019953;28;20048;-47
2022/07/26 08:10:10;;;;;;;5.07;0.68;;;17.80;99.90;;;;;;5020655;28;20076;-50
2022/07/26 08:12:36;;;;;;;4.80;0.82;;;18.00;99.90;;;;;;5002026;28;20857;-46
2022/07/26 08:15:03;;;;;;;4.28;0.90;;;18.10;99.90;;;;;;5020320;28;20497;-49
2022/07/26 08:17:29;;;;;;;1.98;0.43;;;18.10;99.90;;;;;;5019462;28;20045;-50
2022/07/26 08:19:54;;;;;;;4.18;0.80;;;18.20;99.90;;;;;;5020004;28;20064;-50
2022/07/26 08:22:20;;;;;;;4.22;0.50;;;18.20;99.90;;;;;;5020271;28;22316;-48
2022/07/26 08:24:46;;;;;;;2.17;0.40;;;18.40;99.90;;;;;;5019968;28;20041;-47
2022/07/26 08:27:12;;;;;;;4.47;0.70;;;18.50;99.90;;;;;;5018983;28;20041;-47
2022/07/26 08:29:38;;;;;;;4.50;0.70;;;18.60;99.90;;;;;;5001335;28;20512;-46
2022/07/26 08:32:04;;;;;;;2.97;0.50;;;18.80;99.90;;;;;;5018711;28;20025;-48
2022/07/26 08:34:30;;;;;;;3.05;0.68;;;18.80;99.90;;;;;;5019131;28;20021;-47
2022/07/26 08:36:56;;;;;;;5.05;0.70;;;18.80;99.90;;;;;;5021040;28;20039;-50
2022/07/26 08:39:21;;;;;;;4.03;0.63;;;18.60;99.90;;;;;;5020656;28;20037;-49
2022/07/26 08:41:47;;;;;;;4.03;1.17;;;18.70;99.90;;;;;;5003764;28;20044;-47
2022/07/26 08:44:13;;;;;;;3.97;1.38;;;18.60;99.90;;;;;;5020073;28;20040;-45
2022/07/26 08:46:40;;;;;;;6.38;0.73;;;18.40;99.90;;;;;;5020036;28;20049;-48
2022/07/26 08:49:08;;;;;;;10.38;1.60;;;18.20;99.90;;;;;;5020107;28;20635;-47
2022/07/26 08:51:38;;;;;;;6.60;0.98;;;18.10;99.90;;;;;;5021080;28;20116;-48
2022/07/26 08:54:04;;;;;;;5.88;1.10;;;17.90;99.90;;;;;;5018852;28;20068;-48
2022/07/26 08:56:29;;;;;;;5.30;1.02;;;17.80;99.90;;;;;;5020099;28;20519;-48
2022/07/26 08:58:55;;;;;;;6.25;1.20;;;17.80;99.90;;;;;;5020072;28;20146;-50
2022/07/26 09:01:21;;;;;;;3.85;1.05;;;17.90;99.90;;;;;;5018697;28;20080;-49
2022/07/26 09:03:47;;;;;;;5.35;0.80;;;18.10;99.90;;;;;;5019458;28;20041;-48
2022/07/26 09:06:17;;;;;;;7.07;1.02;;;18.20;99.90;;;;;;5016905;28;20045;-49
2022/07/26 09:08:45;;;;;;;5.60;0.77;;;18.40;99.90;;;;;;5016773;28;20041;-46
2022/07/26 09:11:22;;;;;;;8.18;1.00;;;18.60;99.90;;;;;;5015676;28;20041;-48
2022/07/26 09:13:50;;;;;;;5.05;0.90;;;18.90;99.90;;;;;;5016148;28;21382;-52
2022/07/26 09:16:17;;;;;;;3.80;0.88;;;19.10;99.90;;;;;;5016537;28;20162;-48
2022/07/26 09:18:43;;;;;;;2.70;0.60;;;18.90;99.90;;;;;;5014920;28;20065;-51
2022/07/26 09:21:32;;;;;;;5.20;0.98;;;19.00;99.90;;;;;;5015507;28;20144;-45
2022/07/26 09:23:58;;;;;;;3.20;0.70;;;19.30;99.90;;;;;;5018145;28;20030;-46
2022/07/26 09:26:24;;;;;;;4.10;1.02;;;19.50;99.90;;;;;;4999440;28;20056;-50
2022/07/26 09:29:05;;;;;;;4.57;0.70;;;19.80;99.90;;;;;;5016822;28;20182;-48
2022/07/26 09:31:31;;;;;;;3.38;0.68;;;20.10;99.90;;;;;;4999005;28;20033;-48
2022/07/26 09:33:58;;;;;;;4.80;0.70;;;20.00;99.90;;;;;;5018286;28;20485;-48
2022/07/26 09:36:26;;;;;;;4.07;0.70;;;19.90;99.90;;;;;;5017261;28;20053;-50
2022/07/26 09:38:54;;;;;;;4.00;0.70;;;19.90;99.90;;;;;;5015869;28;20037;-48
2022/07/26 09:41:23;;;;;;;4.47;0.90;;;20.00;99.90;;;;;;5016025;28;20042;-51
2022/07/26 09:43:53;;;;;;;6.38;1.42;;;19.90;99.90;;;;;;5017451;28;20045;-45
2022/07/26 09:46:19;;;;;;;6.78;1.00;;;20.20;99.90;;;;;;5017964;28;20490;-46
2022/07/26 09:48:45;;;;;;;6.70;1.48;;;19.80;99.90;;;;;;5018127;28;20034;-49
2022/07/26 09:51:11;;;;;;;4.40;0.70;;;19.80;99.90;;;;;;5016062;28;20095;-46
2022/07/26 09:53:40;;;;;;;7.75;0.98;;;19.60;99.90;;;;;;5017173;28;20048;-49
2022/07/26 09:56:07;;;;;;;5.15;0.88;;;19.50;99.90;;;;;;5019797;28;20037;-47
2022/07/26 09:58:35;;;;;;;7.13;2.28;;;19.40;99.90;;;;;;5020911;28;20153;-49
2022/07/26 10:01:01;;;;;;;5.47;1.20;;;19.10;99.90;;;;;;5020623;28;20041;-46
2022/07/26 10:03:30;;;;;;;3.30;0.80;;;19.10;99.90;;;;;;5020657;28;20078;-49
2022/07/26 10:05:57;;;;;;;4.85;1.00;;;19.10;99.90;;;;;;5020538;28;20037;-48
2022/07/26 10:08:23;;;;;;;5.15;1.10;;;19.30;99.90;;;;;;5020286;28;20061;-48
2022/07/26 10:10:54;;;;;;;5.70;1.17;;;19.60;99.90;;;;;;5020070;28;20030;-48
2022/07/26 10:13:21;;;;;;;6.10;1.00;;;19.60;99.90;;;;;;5020377;28;20505;-46
2022/07/26 10:15:49;;;;;;;6.50;1.27;;;19.50;99.90;;;;;;5019891;28;20083;-46
2022/07/26 10:18:37;;;;;;;5.25;1.00;;;19.60;99.90;;;;;;5022591;28;20573;-47
2022/07/26 10:21:22;;;;;;;6.03;1.08;;;19.70;99.90;;;;;;5023930;28;20149;-47
2022/07/26 10:23:56;;;;;;;9.48;1.85;;;19.60;99.90;;;;;;5023330;28;20120;-50
2022/07/26 10:26:31;;;;;;;9.82;1.90;;;19.00;99.90;;;;;;5024125;28;20033;-45
2022/07/26 10:29:14;;;;;;;8.77;1.63;;;19.00;99.90;;;;;;5023287;28;20030;-47
2022/07/26 10:31:41;;;;;;;7.85;1.65;;;18.70;99.90;;;;;;5023308;28;20043;-47
2022/07/26 10:34:07;;;;;;;8.63;1.67;;;18.40;99.90;;;;;;5023866;28;20034;-47
2022/07/26 10:36:36;;;;;;;7.32;1.60;;;18.40;99.90;;;;;;5023233;28;20043;-50
2022/07/26 10:39:05;;;;;;;8.07;1.95;;;18.40;99.90;;;;;;5022349;28;20338;-51
2022/07/26 10:41:56;;;;;;;10.00;1.70;;;18.30;99.90;;;;;;5022547;28;20544;-46
2022/07/26 10:44:24;;;;;;;6.53;1.27;;;18.50;99.90;;;;;;5023690;28;20514;-50
2022/07/26 10:46:57;;;;;;;5.95;1.30;;;18.50;99.90;;;;;;5023858;28;20054;-47
2022/07/26 10:49:31;;;;;;;8.98;1.80;;;18.50;99.90;;;;;;5024671;28;20043;-49
2022/07/26 10:52:09;;;;;;;5.35;1.30;;;18.60;99.90;;;;;;5021514;28;20033;-49
2022/07/26 10:54:59;;;;;;;6.70;1.20;;;18.80;99.90;;;;;;5019940;28;20045;-51
2022/07/26 10:57:30;;;;;;;6.22;1.33;;;19.10;99.90;;;;;;5021244;28;20045;-50
2022/07/26 10:59:57;;;;;;;8.10;1.63;;;19.40;99.90;;;;;;5020193;28;20149;-50
2022/07/26 11:02:31;;;;;;;7.75;1.60;;;19.70;99.90;;;;;;5020829;28;20042;-46
2022/07/26 11:05:15;;;;;;;8.10;1.92;;;19.70;99.90;;;;;;5020934;28;20332;-48
2022/07/26 11:08:07;;;;;;;10.52;1.67;;;19.50;99.90;;;;;;5019380;28;21280;-50
2022/07/26 11:10:45;;;;;;;7.70;1.90;;;19.20;99.90;;;;;;5018756;28;20159;-49
2022/07/26 11:13:16;;;;;;;7.57;1.40;;;19.10;99.90;;;;;;5021061;28;20056;-47
2022/07/26 11:15:47;;;;;;;8.80;1.60;;;19.00;99.90;;;;;;5018590;28;20100;-48
2022/07/26 11:18:20;;;;;;;6.43;1.67;;;18.90;99.90;;;;;;5017736;28;20052;-50
2022/07/26 11:20:49;;;;;;;7.78;1.45;;;18.90;99.90;;;;;;5016455;28;20116;-48
2022/07/26 11:23:30;;;;;;;10.50;1.45;;;18.90;99.90;;;;;;5017797;28;20045;-49
2022/07/26 11:26:04;;;;;;;5.90;1.40;;;19.00;99.90;;;;;;5017954;28;20448;-51
2022/07/26 11:28:41;;;;;;;6.72;1.38;;;19.10;99.90;;;;;;5019204;28;20042;-46
2022/07/26 11:31:06;;;;;;;8.32;1.73;;;19.30;99.90;;;;;;5019494;28;20040;-49
2022/07/26 11:33:40;;;;;;;9.82;2.33;;;19.40;99.90;;;;;;5022375;28;20397;-49
2022/07/26 11:36:07;;;;;;;7.93;1.98;;;19.50;99.90;;;;;;5023064;28;20037;-49
2022/07/26 11:38:50;;;;;;;7.18;1.40;;;19.70;99.90;;;;;;5024367;28;20393;-48
2022/07/26 11:41:27;;;;;;;8.20;1.48;;;19.70;99.90;;;;;;5028684;28;20053;-48
2022/07/26 11:43:54;;;;;;;6.05;1.23;;;19.90;99.90;;;;;;5029349;28;20039;-47
2022/07/26 11:46:20;;;;;;;7.28;1.50;;;19.90;99.90;;;;;;5029153;28;20049;-47
2022/07/26 11:48:47;;;;;;;8.65;1.48;;;19.80;99.90;;;;;;5013728;28;20404;-44
2022/07/26 11:51:17;;;;;;;7.18;1.33;;;19.80;99.90;;;;;;5031420;28;20076;-47
2022/07/26 11:53:44;;;;;;;7.50;1.55;;;19.90;99.90;;;;;;5031592;28;20069;-48
2022/07/26 11:56:15;;;;;;;7.10;1.33;;;19.70;99.90;;;;;;5031473;28;20113;-50
2022/07/26 11:58:42;;;;;;;7.07;1.10;;;19.80;99.90;;;;;;5031070;28;20380;-47
2022/07/26 12:01:09;;;;;;;11.88;1.63;;;19.80;99.90;;;;;;5031336;28;20049;-48
2022/07/26 12:03:39;;;;;;;6.32;1.50;;;19.80;99.90;;;;;;5030375;28;20040;-44
2022/07/26 12:06:07;;;;;;;8.63;1.88;;;19.90;99.90;;;;;;5031078;28;20033;-50
2022/07/26 12:08:45;;;;;;;6.43;1.40;;;20.10;99.90;;;;;;5031214;28;20033;-48
2022/07/26 12:11:12;;;;;;;7.15;1.20;;;20.20;99.90;;;;;;5030989;28;21809;-47
2022/07/26 12:13:53;;;;;;;8.77;1.60;;;20.60;99.90;;;;;;5031324;28;20045;-48
2022/07/26 12:16:38;;;;;;;7.43;1.33;;;20.70;99.90;;;;;;5031260;28;20076;-48
2022/07/26 12:19:04;;;;;;;;;;;20.70;99.90;;;;;;5031434;28;20504;-48
2022/07/26 12:21:42;;;;;;;10.80;1.80;;;20.90;99.90;;;;;;5030812;28;19924;-44
2022/07/26 12:24:09;;;;;;;9.15;1.80;;;20.80;99.90;;;;;;5031184;28;20040;-49
2022/07/26 12:26:35;;;;;;;6.25;1.23;;;21.00;99.90;;;;;;5031008;28;20045;-49
2022/07/26 12:32:06;;;;;;;6.68;1.10;;;21.60;99.90;;;;;;5030543;28;20107;-48
2022/07/26 12:34:32;;;;;;;5.68;1.00;;;21.90;99.90;;;;;;5031070;28;20049;-49
2022/07/26 12:37:16;;;;;;;6.43;1.23;;;22.30;98.20;;;;;;5030839;28;20037;-49
2022/07/26 12:39:58;;;;;;;5.43;1.08;;;22.20;98.60;;;;;;5030462;28;20042;-48
2022/07/26 12:42:31;;;;;;;6.40;1.35;;;22.80;98.90;;;;;;5030394;28;20075;-48
2022/07/26 12:44:57;;;;;;;6.05;1.08;;;22.30;98.00;;;;;;5030383;28;20120;-49
2022/07/26 12:47:23;;;;;;;6.60;1.20;;;22.30;98.30;;;;;;5030568;28;20048;-49
2022/07/26 12:49:49;;;;;;;5.80;0.98;;;22.10;98.70;;;;;;5030518;28;20041;-48
2022/07/26 12:52:17;;;;;;;5.68;1.10;;;21.80;98.10;;;;;;5030426;28;20033;-50
2022/07/26 12:54:47;;;;;;;7.05;1.23;;;22.30;97.70;;;;;;5030454;28;20037;-47